createdAt,value
2022-08-16T00:02:30.670Z,21.13
2022-08-16T00:04:59.689Z,21.13
2022-08-16T00:07:29.323Z,21.15
2022-08-16T00:10:00.138Z,21.17
2022-08-16T00:12:29.764Z,21.20
2022-08-16T00:14:59.302Z,21.22
2022-08-16T00:17:26.806Z,21.21
2022-08-16T00:19:56.245Z,21.22
2022-08-16T00:22:27.770Z,21.24
2022-08-16T00:24:54.988Z,21.31
2022-08-16T00:27:23.036Z,21.22
2022-08-16T00:30:08.335Z,21.21
2022-08-16T00:32:38.386Z,21.19
2022-08-16T00:35:15.337Z,21.16
2022-08-16T00:37:58.363Z,21.15
2022-08-16T00:40:43.953Z,21.19
2022-08-16T00:43:40.713Z,21.16
2022-08-16T00:46:32.943Z,21.18
2022-08-16T00:49:05.774Z,21.13
2022-08-16T00:51:32.961Z,21.09
2022-08-16T00:54:00.769Z,21.08
2022-08-16T00:56:58.342Z,21.10
2022-08-16T00:59:21.896Z,21.06
2022-08-16T01:01:51.424Z,21.14
2022-08-16T01:04:29.513Z,21.03
2022-08-16T01:07:01.806Z,21.02
2022-08-16T01:09:37.321Z,21.03
2022-08-16T01:12:08.492Z,20.98
2022-08-16T01:14:41.525Z,21.00
2022-08-16T01:17:12.659Z,20.94
2022-08-16T01:19:44.407Z,20.92
2022-08-16T01:22:47.814Z,20.95
2022-08-16T01:25:33.984Z,20.88
2022-08-16T01:28:07.406Z,20.86
2022-08-16T01:30:49.535Z,20.86
2022-08-16T01:33:19.238Z,20.80
2022-08-16T01:35:52.634Z,20.82
2022-08-16T01:38:57.449Z,20.78
2022-08-16T01:41:30.021Z,20.73
2022-08-16T01:43:57.184Z,20.70
2022-08-16T01:46:42.674Z,20.68
2022-08-16T01:49:43.287Z,20.70
2022-08-16T01:52:29.231Z,20.61
2022-08-16T01:54:57.652Z,20.57
2022-08-16T01:57:24.829Z,20.53
2022-08-16T01:59:54.752Z,20.50
2022-08-16T02:02:27.094Z,20.46
2022-08-16T02:04:57.417Z,20.39
2022-08-16T02:07:24.535Z,20.33
2022-08-16T02:09:56.978Z,20.27
2022-08-16T02:12:50.817Z,20.24
2022-08-16T02:15:17.287Z,20.23
2022-08-16T02:17:52.666Z,20.15
2022-08-16T02:20:26.122Z,20.13
2022-08-16T02:22:55.228Z,20.09
2022-08-16T02:25:23.538Z,20.05
2022-08-16T02:27:51.510Z,20.01
2022-08-16T02:30:37.058Z,20.03
2022-08-16T02:33:11.544Z,19.96
2022-08-16T02:35:53.736Z,19.91
2022-08-16T02:38:22.693Z,19.86
2022-08-16T02:40:49.569Z,19.79
2022-08-16T02:43:16.519Z,19.72
2022-08-16T02:45:43.677Z,19.70
2022-08-16T02:48:28.021Z,19.65
2022-08-16T02:51:06.415Z,19.61
2022-08-16T02:53:43.282Z,19.59
2022-08-16T02:56:14.996Z,19.62
2022-08-16T02:58:44.147Z,19.76
2022-08-16T03:01:24.653Z,19.69
2022-08-16T03:04:41.160Z,19.76
2022-08-16T03:06:47.557Z,19.86
2022-08-16T03:09:16.316Z,19.87
2022-08-16T03:11:44.886Z,19.83
2022-08-16T03:14:12.780Z,19.82
2022-08-16T03:16:42.346Z,19.84
2022-08-16T03:19:48.391Z,19.89
2022-08-16T03:22:18.858Z,19.97
2022-08-16T03:24:57.363Z,20.04
2022-08-16T03:27:25.450Z,20.03
2022-08-16T03:29:59.267Z,19.97
2022-08-16T03:32:26.781Z,19.97
2022-08-16T03:34:54.113Z,19.96
2022-08-16T03:37:21.240Z,19.96
2022-08-16T03:39:48.147Z,19.99
2022-08-16T03:42:23.330Z,20.02
2022-08-16T03:44:50.439Z,20.01
2022-08-16T03:47:19.750Z,20.00
2022-08-16T03:49:52.362Z,19.99
2022-08-16T03:52:23.567Z,19.98
2022-08-16T03:54:53.232Z,20.00
2022-08-16T03:57:32.087Z,20.00
2022-08-16T04:00:20.496Z,20.05
2022-08-16T04:03:07.349Z,20.08
2022-08-16T04:05:37.845Z,20.09
2022-08-16T04:08:15.141Z,20.06
2022-08-16T04:10:52.813Z,20.08
2022-08-16T04:13:59.127Z,20.08
2022-08-16T04:16:08.052Z,20.11
2022-08-16T04:18:38.740Z,20.15
2022-08-16T04:21:06.186Z,20.18
2022-08-16T04:23:33.179Z,20.20
2022-08-16T04:26:01.841Z,20.22
2022-08-16T04:28:54.531Z,20.24
2022-08-16T04:31:16.704Z,20.28
2022-08-16T04:33:50.906Z,20.34
2022-08-16T04:36:20.250Z,20.37
2022-08-16T04:38:50.142Z,20.39
2022-08-16T04:41:19.394Z,20.43
2022-08-16T04:43:59.960Z,20.45
2022-08-16T04:47:00.789Z,20.51
2022-08-16T04:49:13.833Z,20.55
2022-08-16T04:51:43.997Z,20.65
2022-08-16T04:54:20.847Z,20.71
2022-08-16T04:56:48.716Z,20.78
2022-08-16T04:59:15.691Z,20.82
2022-08-16T05:01:58.304Z,20.88
2022-08-16T05:04:25.869Z,20.94
2022-08-16T05:06:58.028Z,20.99
2022-08-16T05:09:24.910Z,21.03
2022-08-16T05:11:51.866Z,21.07
2022-08-16T05:14:20.320Z,21.13
2022-08-16T05:17:05.581Z,21.15
2022-08-16T05:19:35.935Z,21.16
2022-08-16T05:22:03.854Z,21.19
2022-08-16T05:24:31.472Z,21.23
2022-08-16T05:26:58.411Z,21.30
2022-08-16T05:29:57.417Z,21.35
2022-08-16T05:32:32.776Z,21.44
2022-08-16T05:34:59.217Z,21.51
2022-08-16T05:37:26.784Z,21.60
2022-08-16T05:40:06.928Z,21.68
2022-08-16T05:42:35.764Z,21.74
2022-08-16T05:45:22.090Z,21.80
2022-08-16T05:47:59.523Z,21.86
2022-08-16T05:50:28.327Z,21.93
2022-08-16T05:53:01.659Z,21.98
2022-08-16T05:55:28.596Z,22.03
2022-08-16T05:57:57.212Z,22.07
2022-08-16T06:00:25.307Z,22.12
2022-08-16T06:02:52.539Z,22.19
2022-08-16T06:05:19.831Z,22.24
2022-08-16T06:07:58.373Z,22.30
2022-08-16T06:10:33.175Z,22.38
2022-08-16T06:13:00.306Z,22.44
2022-08-16T06:15:27.571Z,22.50
2022-08-16T06:17:59.053Z,22.54
2022-08-16T06:20:35.168Z,22.61
2022-08-16T06:23:16.845Z,22.69
2022-08-16T06:25:44.280Z,22.75
2022-08-16T06:28:35.791Z,22.81
2022-08-16T06:31:05.829Z,22.90
2022-08-16T06:33:41.997Z,22.94
2022-08-16T06:36:10.608Z,22.99
2022-08-16T06:38:38.758Z,23.01
2022-08-16T06:41:23.316Z,23.06
2022-08-16T06:43:54.118Z,23.10
2022-08-16T06:46:31.936Z,23.16
2022-08-16T06:49:00.697Z,23.21
2022-08-16T06:51:45.680Z,23.28
2022-08-16T06:54:14.901Z,23.37
2022-08-16T06:56:42.635Z,23.47
2022-08-16T06:59:10.634Z,23.56
2022-08-16T07:01:43.071Z,23.64
2022-08-16T07:04:13.451Z,23.72
2022-08-16T07:07:00.964Z,23.80
2022-08-16T07:09:29.745Z,23.84
2022-08-16T07:12:03.223Z,23.89
2022-08-16T07:14:31.246Z,23.95
2022-08-16T07:16:59.941Z,24.01
2022-08-16T07:20:03.991Z,24.08
2022-08-16T07:22:38.767Z,24.18
2022-08-16T07:25:12.029Z,24.27
2022-08-16T07:27:40.061Z,24.26
2022-08-16T07:30:45.647Z,24.23
2022-08-16T07:33:00.367Z,24.31
2022-08-16T07:35:27.323Z,24.43
2022-08-16T07:37:54.423Z,24.48
2022-08-16T07:40:36.937Z,24.56
2022-08-16T07:43:08.695Z,24.66
2022-08-16T07:45:37.102Z,24.68
2022-08-16T07:48:11.106Z,24.65
2022-08-16T07:50:57.851Z,24.69
2022-08-16T07:53:28.932Z,24.81
2022-08-16T07:55:56.567Z,24.86
2022-08-16T07:58:34.167Z,24.96
2022-08-16T08:01:10.585Z,25.03
2022-08-16T08:03:48.468Z,25.04
2022-08-16T08:06:20.978Z,25.11
2022-08-16T08:08:57.482Z,25.14
2022-08-16T08:11:28.237Z,25.22
2022-08-16T08:13:57.585Z,25.32
2022-08-16T08:16:31.468Z,25.43
2022-08-16T08:19:02.892Z,25.58
2022-08-16T08:21:58.314Z,25.68
2022-08-16T08:24:18.103Z,25.75
2022-08-16T08:26:50.380Z,25.81
2022-08-16T08:29:22.945Z,25.77
2022-08-16T08:31:53.218Z,25.74
2022-08-16T08:34:22.155Z,25.69
2022-08-16T08:36:54.097Z,25.64
2022-08-16T08:39:22.568Z,25.69
2022-08-16T08:41:50.425Z,25.81
2022-08-16T08:44:29.007Z,25.81
2022-08-16T08:47:02.012Z,25.77
2022-08-16T08:49:46.740Z,25.75
2022-08-16T08:52:35.136Z,25.82
2022-08-16T08:55:10.318Z,25.92
2022-08-16T08:57:42.129Z,25.94
2022-08-16T09:00:13.637Z,25.97
2022-08-16T09:02:44.401Z,25.98
2022-08-16T09:05:16.353Z,25.95
2022-08-16T09:08:01.326Z,25.89
2022-08-16T09:10:31.593Z,25.91
2022-08-16T09:13:01.425Z,26.04
2022-08-16T09:15:33.196Z,26.19
2022-08-16T09:18:24.518Z,26.32
2022-08-16T09:20:59.432Z,26.43
2022-08-16T09:23:29.439Z,26.58
2022-08-16T09:25:56.437Z,26.64
2022-08-16T09:29:15.269Z,26.73
2022-08-16T09:31:10.934Z,26.70
2022-08-16T09:33:39.362Z,26.59
2022-08-16T09:36:12.330Z,26.64
2022-08-16T09:38:59.857Z,26.71
2022-08-16T09:41:27.051Z,26.80
2022-08-16T09:43:59.781Z,26.74
2022-08-16T09:46:44.585Z,26.84
2022-08-16T09:49:12.799Z,27.04
2022-08-16T09:51:40.403Z,27.26
2022-08-16T09:54:09.739Z,27.26
2022-08-16T09:56:39.490Z,27.28
2022-08-16T09:59:21.055Z,27.35
2022-08-16T10:01:51.688Z,27.40
2022-08-16T10:04:31.699Z,27.34
2022-08-16T10:07:15.317Z,27.30
2022-08-16T10:09:53.955Z,27.39
2022-08-16T10:12:46.032Z,27.52
2022-08-16T10:15:21.035Z,27.84
2022-08-16T10:18:00.212Z,27.94
2022-08-16T10:20:41.068Z,28.26
2022-08-16T10:23:17.309Z,29.23
2022-08-16T10:27:16.383Z,30.08
2022-08-16T10:28:39.852Z,30.66
2022-08-16T10:31:09.088Z,31.02
2022-08-16T10:33:41.903Z,31.37
2022-08-16T10:36:12.212Z,30.97
2022-08-16T10:38:58.898Z,31.16
2022-08-16T10:41:25.780Z,31.50
2022-08-16T10:43:52.726Z,31.78
2022-08-16T10:46:39.189Z,32.21
2022-08-16T10:49:06.436Z,32.78
2022-08-16T10:52:00.787Z,33.06
2022-08-16T10:54:29.277Z,32.51
2022-08-16T10:57:03.986Z,32.11
2022-08-16T10:59:45.985Z,32.02
2022-08-16T11:03:37.432Z,32.29
2022-08-16T11:05:12.436Z,32.81
2022-08-16T11:07:51.609Z,33.31
2022-08-16T11:19:06.456Z,35.01
2022-08-16T11:22:39.155Z,34.74
2022-08-16T11:24:42.628Z,34.98
2022-08-16T11:27:23.356Z,35.63
2022-08-16T11:29:56.701Z,36.01
2022-08-16T11:32:31.474Z,35.86
2022-08-16T11:35:15.050Z,36.41
2022-08-16T11:38:47.285Z,36.15
2022-08-16T11:40:52.808Z,35.06
2022-08-16T11:43:24.939Z,34.65
2022-08-16T11:45:55.317Z,34.11
2022-08-16T11:48:29.038Z,34.04
2022-08-16T11:50:56.457Z,34.15
2022-08-16T11:53:24.362Z,33.69
2022-08-16T11:55:54.958Z,33.59
2022-08-16T11:58:25.428Z,33.71
2022-08-16T12:00:55.007Z,34.18
2022-08-16T12:03:34.658Z,34.16
2022-08-16T12:06:30.395Z,34.61
2022-08-16T12:09:00.981Z,35.42
2022-08-16T12:11:31.398Z,36.37
2022-08-16T12:14:01.114Z,36.81
2022-08-16T12:16:31.264Z,37.09
2022-08-16T12:19:06.199Z,36.65
2022-08-16T12:21:58.420Z,36.58
2022-08-16T12:24:24.396Z,36.68
2022-08-16T12:26:52.642Z,37.20
2022-08-16T12:29:21.124Z,37.31
2022-08-16T12:32:01.731Z,37.65
2022-08-16T12:34:38.593Z,37.58
2022-08-16T12:37:17.737Z,37.65
2022-08-16T12:39:50.817Z,37.88
2022-08-16T12:42:20.556Z,38.16
2022-08-16T12:44:48.605Z,37.65
2022-08-16T12:47:37.204Z,36.97
2022-08-16T12:50:10.593Z,37.12
2022-08-16T12:52:48.938Z,37.76
2022-08-16T12:55:20.566Z,37.48
2022-08-16T12:57:58.570Z,35.96
2022-08-16T13:00:33.327Z,35.63
2022-08-16T13:03:03.036Z,35.18
2022-08-16T13:05:36.706Z,35.16
2022-08-16T13:08:03.883Z,34.79
2022-08-16T13:10:36.973Z,34.52
2022-08-16T13:13:06.517Z,34.08
2022-08-16T13:15:36.247Z,33.97
2022-08-16T13:18:24.303Z,33.74
2022-08-16T13:20:54.489Z,33.25
2022-08-16T13:23:23.393Z,33.50
2022-08-16T13:25:51.888Z,33.76
2022-08-16T13:28:21.952Z,34.41
2022-08-16T13:30:52.172Z,33.84
2022-08-16T13:33:30.558Z,34.25
2022-08-16T13:36:00.383Z,34.77
2022-08-16T13:38:31.469Z,34.98
2022-08-16T13:41:05.294Z,35.24
2022-08-16T13:43:35.858Z,35.25
2022-08-16T13:46:04.365Z,35.43
2022-08-16T13:48:43.111Z,35.04
2022-08-16T13:51:18.011Z,35.04
2022-08-16T13:53:59.395Z,34.66
2022-08-16T13:56:37.061Z,33.42
2022-08-16T13:59:19.198Z,32.80
2022-08-16T14:01:55.422Z,32.97
2022-08-16T14:04:30.161Z,32.65
2022-08-16T14:06:59.966Z,32.20
2022-08-16T14:09:29.064Z,32.47
2022-08-16T14:12:00.678Z,32.50
2022-08-16T14:14:29.990Z,32.71
2022-08-16T14:17:00.015Z,33.17
2022-08-16T14:19:29.668Z,33.17
2022-08-16T14:22:14.639Z,33.17
2022-08-16T14:24:48.710Z,33.21
2022-08-16T14:27:18.061Z,32.84
2022-08-16T14:29:49.244Z,33.03
2022-08-16T14:32:32.667Z,33.28
2022-08-16T14:35:07.472Z,33.28
2022-08-16T14:37:35.318Z,33.23
2022-08-16T14:40:03.379Z,33.29
2022-08-16T14:42:30.966Z,33.05
2022-08-16T14:45:00.494Z,32.92
2022-08-16T14:47:34.264Z,32.86
2022-08-16T14:50:02.783Z,32.66
2022-08-16T14:52:53.950Z,32.50
2022-08-16T14:55:17.652Z,32.23
2022-08-16T14:57:47.531Z,31.81
2022-08-16T15:00:15.722Z,31.20
2022-08-16T15:02:49.858Z,30.90
2022-08-16T15:05:23.139Z,30.60
2022-08-16T15:07:51.574Z,30.41
2022-08-16T15:10:23.863Z,30.17
2022-08-16T15:12:56.322Z,30.07
2022-08-16T15:15:27.951Z,30.03
2022-08-16T15:17:56.647Z,30.06
2022-08-16T15:20:30.007Z,30.42
2022-08-16T15:22:59.828Z,30.47
2022-08-16T15:25:34.198Z,30.69
2022-08-16T15:28:04.829Z,30.64
2022-08-16T15:30:57.748Z,30.48
2022-08-16T15:33:25.448Z,30.02
2022-08-16T15:35:54.144Z,29.61
2022-08-16T15:38:56.865Z,29.25
2022-08-16T15:41:43.162Z,29.02
2022-08-16T15:44:14.219Z,28.71
2022-08-16T15:46:55.492Z,28.40
2022-08-16T15:49:38.117Z,28.16
2022-08-16T15:52:12.452Z,28.09
2022-08-16T15:54:53.180Z,27.92
2022-08-16T15:57:22.952Z,27.81
2022-08-16T15:59:52.485Z,27.72
2022-08-16T16:02:29.164Z,27.63
2022-08-16T16:05:04.575Z,27.51
2022-08-16T16:07:33.482Z,27.42
2022-08-16T16:10:03.882Z,27.37
2022-08-16T16:12:51.715Z,27.33
2022-08-16T16:15:22.668Z,27.24
2022-08-16T16:17:51.062Z,27.16
2022-08-16T16:20:27.570Z,27.12
2022-08-16T16:23:04.251Z,27.07
2022-08-16T16:25:37.261Z,26.98
2022-08-16T16:28:04.109Z,26.96
2022-08-16T16:30:44.791Z,26.87
2022-08-16T16:33:20.859Z,26.78
2022-08-16T16:35:55.458Z,26.72
2022-08-16T16:38:30.638Z,26.73
2022-08-16T16:41:08.958Z,26.61
2022-08-16T16:43:42.055Z,26.57
2022-08-16T16:46:38.979Z,26.47
2022-08-16T16:48:59.992Z,26.38
2022-08-16T16:51:28.009Z,26.33
2022-08-16T16:53:57.015Z,26.24
2022-08-16T16:56:30.192Z,26.22
2022-08-16T16:59:06.083Z,26.09
2022-08-16T17:01:56.940Z,26.07
2022-08-16T17:04:31.984Z,26.06
2022-08-16T17:07:03.582Z,25.99
2022-08-16T17:09:30.715Z,25.92
2022-08-16T17:11:58.625Z,25.84
2022-08-16T17:14:33.813Z,25.76
2022-08-16T17:17:08.751Z,25.67
2022-08-16T17:19:41.188Z,25.68
2022-08-16T17:22:20.594Z,25.73
2022-08-16T17:24:52.299Z,25.68
2022-08-16T17:27:33.104Z,25.60
2022-08-16T17:30:16.293Z,25.47
2022-08-16T17:32:54.645Z,25.34
2022-08-16T17:35:40.654Z,25.33
2022-08-16T17:38:09.403Z,25.21
2022-08-16T17:40:54.993Z,25.12
2022-08-16T17:43:34.078Z,25.12
2022-08-16T17:46:04.317Z,25.10
2022-08-16T17:48:32.158Z,24.95
2022-08-16T17:50:59.906Z,24.85
2022-08-16T17:53:27.203Z,24.84
2022-08-16T17:55:54.690Z,24.81
2022-08-16T17:58:24.138Z,24.77
2022-08-16T18:00:54.220Z,24.79
2022-08-16T18:04:02.597Z,24.71
2022-08-16T18:06:13.926Z,24.60
2022-08-16T18:08:45.114Z,24.52
2022-08-16T18:11:25.625Z,24.53
2022-08-16T18:13:54.249Z,24.57
2022-08-16T18:16:21.029Z,24.49
2022-08-16T18:18:47.849Z,24.65
2022-08-16T18:21:34.274Z,24.60
2022-08-16T18:24:01.281Z,24.50
2022-08-16T18:26:28.600Z,24.50
2022-08-16T18:28:55.406Z,24.49
2022-08-16T18:31:22.356Z,24.47
2022-08-16T18:33:49.520Z,24.46
2022-08-16T18:36:21.903Z,24.38
2022-08-16T18:38:50.038Z,24.33
2022-08-16T18:41:17.929Z,24.22
2022-08-16T18:44:24.216Z,24.14
2022-08-16T18:46:31.673Z,24.18
2022-08-16T18:48:58.733Z,24.23
2022-08-16T18:51:25.981Z,24.22
2022-08-16T18:53:53.477Z,24.17
2022-08-16T18:56:20.601Z,24.15
2022-08-16T18:58:47.435Z,24.13
2022-08-16T19:01:14.508Z,24.13
2022-08-16T19:03:41.411Z,24.11
2022-08-16T19:06:13.839Z,24.13
2022-08-16T19:08:43.524Z,24.28
2022-08-16T19:11:15.380Z,24.22
2022-08-16T19:13:44.271Z,24.28
2022-08-16T19:16:13.200Z,24.10
2022-08-16T19:18:40.121Z,24.02
2022-08-16T19:21:08.903Z,23.97
2022-08-16T19:23:37.751Z,24.02
2022-08-16T19:26:23.411Z,24.08
2022-08-16T19:28:59.891Z,24.15
2022-08-16T19:31:33.092Z,24.13
2022-08-16T19:34:01.412Z,23.96
2022-08-16T19:36:34.136Z,24.12
2022-08-16T19:39:14.222Z,24.11
2022-08-16T19:41:44.490Z,24.04
2022-08-16T19:44:11.634Z,23.97
2022-08-16T19:46:41.780Z,23.97
2022-08-16T19:49:08.668Z,23.99
2022-08-16T19:51:35.677Z,23.97
2022-08-16T19:54:04.908Z,23.95
2022-08-16T19:56:31.743Z,23.91
2022-08-16T20:01:46.363Z,24.07
2022-08-16T20:04:13.572Z,24.01
2022-08-16T20:06:41.913Z,24.03
2022-08-16T20:09:10.541Z,23.99
2022-08-16T20:11:41.530Z,24.01
2022-08-16T20:14:08.471Z,24.01
2022-08-16T20:16:35.889Z,24.00
2022-08-16T20:19:04.581Z,23.98
2022-08-16T20:21:34.499Z,23.97
2022-08-16T20:24:31.966Z,23.91
2022-08-16T20:26:48.577Z,23.86
2022-08-16T20:29:15.577Z,23.81
2022-08-16T20:31:42.517Z,23.75
2022-08-16T20:34:09.359Z,23.73
2022-08-16T20:36:36.318Z,23.64
2022-08-16T20:39:04.910Z,23.57
2022-08-16T20:41:31.866Z,23.52
2022-08-16T20:43:58.758Z,23.52
2022-08-16T20:46:26.740Z,23.49
2022-08-16T20:48:53.554Z,23.44
2022-08-16T20:51:20.373Z,23.40
2022-08-16T20:53:47.174Z,23.38
2022-08-16T20:56:14.169Z,23.34
2022-08-16T20:58:41.023Z,23.31
2022-08-16T21:01:08.191Z,23.25
2022-08-16T21:03:35.634Z,23.23
2022-08-16T21:06:02.908Z,23.19
2022-08-16T21:08:53.512Z,23.15
2022-08-16T21:11:17.867Z,23.08
2022-08-16T21:13:44.702Z,23.05
2022-08-16T21:16:11.773Z,22.98
2022-08-16T21:18:38.816Z,22.97
2022-08-16T21:21:05.661Z,22.95
2022-08-16T21:23:32.532Z,22.88
2022-08-16T21:25:59.929Z,22.84
2022-08-16T21:28:39.325Z,22.81
2022-08-16T21:31:09.591Z,22.74
2022-08-16T21:33:36.528Z,22.74
2022-08-16T21:36:03.605Z,22.71
2022-08-16T21:38:31.098Z,22.68
2022-08-16T21:41:03.430Z,22.65
2022-08-16T21:43:32.048Z,22.62
2022-08-16T21:46:03.887Z,22.59
2022-08-16T21:48:35.278Z,22.56
2022-08-16T21:51:21.193Z,22.57
2022-08-16T21:53:48.209Z,22.49
2022-08-16T21:56:17.191Z,22.47
2022-08-16T21:58:46.394Z,22.46
2022-08-16T22:01:15.288Z,22.43
2022-08-16T22:03:42.734Z,22.42
2022-08-16T22:06:13.167Z,22.40
2022-08-16T22:08:51.140Z,22.35
2022-08-16T22:11:23.941Z,22.32
2022-08-16T22:13:57.847Z,22.29
2022-08-16T22:16:32.274Z,22.26
2022-08-16T22:19:00.068Z,22.22
2022-08-16T22:21:27.167Z,22.22
2022-08-16T22:23:57.039Z,22.19
2022-08-16T22:26:31.709Z,22.18
2022-08-16T22:29:08.630Z,22.17
2022-08-16T22:31:37.316Z,22.13
2022-08-16T22:34:04.492Z,22.12
2022-08-16T22:36:33.176Z,22.10
2022-08-16T22:39:03.557Z,22.06
2022-08-16T22:41:32.717Z,21.99
2022-08-16T22:44:01.358Z,22.00
2022-08-16T22:46:28.599Z,21.96
2022-08-16T22:48:55.502Z,21.96
2022-08-16T22:51:26.090Z,21.91
2022-08-16T22:53:54.028Z,21.88
2022-08-16T22:56:22.464Z,21.88
2022-08-16T22:58:50.138Z,21.83
2022-08-16T23:01:19.495Z,21.81
2022-08-16T23:03:46.476Z,21.78
2022-08-16T23:06:14.566Z,21.79
2022-08-16T23:08:43.066Z,21.82
2022-08-16T23:11:19.530Z,21.80
2022-08-16T23:13:52.408Z,21.77
2022-08-16T23:16:33.432Z,21.75
2022-08-16T23:19:10.837Z,21.77
2022-08-16T23:21:40.842Z,21.70
2022-08-16T23:24:08.652Z,21.67
2022-08-16T23:26:48.150Z,21.65
2022-08-16T23:29:23.157Z,21.63
2022-08-16T23:31:58.624Z,21.64
2022-08-16T23:34:28.172Z,21.53
2022-08-16T23:36:55.591Z,21.49
2022-08-16T23:39:23.613Z,21.44
2022-08-16T23:41:50.892Z,21.42
2022-08-16T23:44:57.362Z,21.39
2022-08-16T23:47:06.274Z,21.33
2022-08-16T23:50:00.199Z,21.29
2022-08-16T23:52:53.083Z,21.26
2022-08-16T23:55:08.520Z,21.26
2022-08-16T23:57:35.351Z,21.26
